sensor_id;sensor_type;location;lat;lon;timestamp;P1;durP1;ratioP1;P2;durP2;ratioP2
11228;SDS011;5671;47.936;8.716;2022-10-22T00:03:41;3.40;;;0.90;;
11228;SDS011;5671;47.936;8.716;2022-10-22T00:09:52;2.00;;;0.90;;
11228;SDS011;5671;47.936;8.716;2022-10-22T00:12:26;1.27;;;0.63;;
11228;SDS011;5671;47.936;8.716;2022-10-22T00:14:56;3.57;;;1.20;;
11228;SDS011;5671;47.936;8.716;2022-10-22T00:20:53;1.17;;;0.57;;
11228;SDS011;5671;47.936;8.716;2022-10-22T00:23:28;2.63;;;0.70;;
11228;SDS011;5671;47.936;8.716;2022-10-22T00:26:14;1.13;;;0.63;;
11228;SDS011;5671;47.936;8.716;2022-10-22T00:29:20;2.50;;;0.80;;
11228;SDS011;5671;47.936;8.716;2022-10-22T00:32:25;3.80;;;0.57;;
11228;SDS011;5671;47.936;8.716;2022-10-22T00:35:00;1.43;;;0.77;;
11228;SDS011;5671;47.936;8.716;2022-10-22T00:37:27;1.70;;;0.80;;
11228;SDS011;5671;47.936;8.716;2022-10-22T00:39:54;1.07;;;0.73;;
11228;SDS011;5671;47.936;8.716;2022-10-22T00:42:23;4.53;;;1.70;;
11228;SDS011;5671;47.936;8.716;2022-10-22T03:28:21;2.60;;;0.37;;
11228;SDS011;5671;47.936;8.716;2022-10-22T03:41:12;2.13;;;0.83;;
11228;SDS011;5671;47.936;8.716;2022-10-22T03:43:39;1.80;;;0.90;;
11228;SDS011;5671;47.936;8.716;2022-10-22T03:46:06;5.63;;;1.23;;
11228;SDS011;5671;47.936;8.716;2022-10-22T03:48:33;3.53;;;1.20;;
11228;SDS011;5671;47.936;8.716;2022-10-22T03:51:00;2.50;;;1.50;;
11228;SDS011;5671;47.936;8.716;2022-10-22T04:22:08;2.13;;;1.93;;
11228;SDS011;5671;47.936;8.716;2022-10-22T04:24:53;5.03;;;2.10;;
11228;SDS011;5671;47.936;8.716;2022-10-22T04:27:21;2.80;;;2.33;;
11228;SDS011;5671;47.936;8.716;2022-10-22T04:29:48;2.17;;;1.97;;
11228;SDS011;5671;47.936;8.716;2022-10-22T04:32:15;2.00;;;1.90;;
11228;SDS011;5671;47.936;8.716;2022-10-22T04:34:43;2.20;;;1.77;;
11228;SDS011;5671;47.936;8.716;2022-10-22T04:37:10;1.80;;;1.70;;
11228;SDS011;5671;47.936;8.716;2022-10-22T04:39:37;1.80;;;1.70;;
11228;SDS011;5671;47.936;8.716;2022-10-22T04:42:04;2.63;;;1.53;;
11228;SDS011;5671;47.936;8.716;2022-10-22T04:44:31;4.23;;;1.63;;
11228;SDS011;5671;47.936;8.716;2022-10-22T04:46:59;1.73;;;1.40;;
11228;SDS011;5671;47.936;8.716;2022-10-22T04:49:26;1.93;;;1.57;;
11228;SDS011;5671;47.936;8.716;2022-10-22T04:51:54;4.40;;;2.00;;
11228;SDS011;5671;47.936;8.716;2022-10-22T04:54:21;3.27;;;2.10;;
11228;SDS011;5671;47.936;8.716;2022-10-22T04:56:48;6.83;;;2.20;;
11228;SDS011;5671;47.936;8.716;2022-10-22T04:59:15;4.97;;;2.90;;
11228;SDS011;5671;47.936;8.716;2022-10-22T05:01:42;3.60;;;2.60;;
11228;SDS011;5671;47.936;8.716;2022-10-22T05:04:10;4.23;;;2.90;;
11228;SDS011;5671;47.936;8.716;2022-10-22T05:06:43;4.50;;;2.93;;
11228;SDS011;5671;47.936;8.716;2022-10-22T05:09:13;8.63;;;3.23;;
11228;SDS011;5671;47.936;8.716;2022-10-22T05:11:42;5.53;;;3.33;;
11228;SDS011;5671;47.936;8.716;2022-10-22T05:14:12;4.70;;;3.20;;
11228;SDS011;5671;47.936;8.716;2022-10-22T05:16:40;4.97;;;3.37;;
11228;SDS011;5671;47.936;8.716;2022-10-22T05:19:13;4.27;;;3.47;;
11228;SDS011;5671;47.936;8.716;2022-10-22T05:21:57;5.93;;;3.33;;
11228;SDS011;5671;47.936;8.716;2022-10-22T05:24:36;4.67;;;3.50;;
11228;SDS011;5671;47.936;8.716;2022-10-22T05:27:03;5.43;;;4.10;;
11228;SDS011;5671;47.936;8.716;2022-10-22T05:29:30;3.80;;;3.50;;
11228;SDS011;5671;47.936;8.716;2022-10-22T05:31:57;5.73;;;4.10;;
11228;SDS011;5671;47.936;8.716;2022-10-22T05:34:24;4.80;;;4.00;;
11228;SDS011;5671;47.936;8.716;2022-10-22T05:36:56;4.57;;;4.03;;
11228;SDS011;5671;47.936;8.716;2022-10-22T05:39:25;4.50;;;4.10;;
11228;SDS011;5671;47.936;8.716;2022-10-22T05:41:59;3.50;;;3.20;;
11228;SDS011;5671;47.936;8.716;2022-10-22T05:44:31;6.73;;;3.40;;
11228;SDS011;5671;47.936;8.716;2022-10-22T05:53:43;3.30;;;3.07;;
11228;SDS011;5671;47.936;8.716;2022-10-22T05:56:17;5.30;;;3.30;;
11228;SDS011;5671;47.936;8.716;2022-10-22T05:58:53;3.37;;;3.17;;
11228;SDS011;5671;47.936;8.716;2022-10-22T06:01:27;3.67;;;2.90;;
11228;SDS011;5671;47.936;8.716;2022-10-22T06:03:56;2.97;;;2.77;;
11228;SDS011;5671;47.936;8.716;2022-10-22T06:06:33;4.10;;;2.23;;
11228;SDS011;5671;47.936;8.716;2022-10-22T06:09:42;2.40;;;2.20;;
11228;SDS011;5671;47.936;8.716;2022-10-22T06:12:18;2.77;;;2.00;;
11228;SDS011;5671;47.936;8.716;2022-10-22T08:46:21;5.20;;;1.53;;
11228;SDS011;5671;47.936;8.716;2022-10-22T08:52:16;3.60;;;1.57;;
11228;SDS011;5671;47.936;8.716;2022-10-22T08:54:47;1.97;;;1.73;;
11228;SDS011;5671;47.936;8.716;2022-10-22T08:57:27;3.17;;;1.53;;
11228;SDS011;5671;47.936;8.716;2022-10-22T09:00:23;1.50;;;1.37;;
11228;SDS011;5671;47.936;8.716;2022-10-22T09:02:59;1.93;;;1.30;;
11228;SDS011;5671;47.936;8.716;2022-10-22T09:06:36;1.73;;;1.00;;
11228;SDS011;5671;47.936;8.716;2022-10-22T09:08:58;4.63;;;1.40;;
11228;SDS011;5671;47.936;8.716;2022-10-22T09:11:27;1.50;;;0.97;;
11228;SDS011;5671;47.936;8.716;2022-10-22T09:14:00;1.30;;;1.10;;
11228;SDS011;5671;47.936;8.716;2022-10-22T09:16:32;3.77;;;2.07;;
11228;SDS011;5671;47.936;8.716;2022-10-22T09:19:05;1.30;;;0.80;;
11228;SDS011;5671;47.936;8.716;2022-10-22T09:21:45;2.63;;;0.97;;
11228;SDS011;5671;47.936;8.716;2022-10-22T09:24:29;2.40;;;1.00;;
11228;SDS011;5671;47.936;8.716;2022-10-22T09:27:01;2.70;;;1.17;;
11228;SDS011;5671;47.936;8.716;2022-10-22T09:29:34;4.10;;;1.10;;
11228;SDS011;5671;47.936;8.716;2022-10-22T09:32:01;1.33;;;1.00;;
11228;SDS011;5671;47.936;8.716;2022-10-22T09:34:28;5.70;;;1.50;;
11228;SDS011;5671;47.936;8.716;2022-10-22T09:36:59;1.87;;;1.00;;
11228;SDS011;5671;47.936;8.716;2022-10-22T09:39:31;0.87;;;0.87;;
11228;SDS011;5671;47.936;8.716;2022-10-22T09:41:59;2.83;;;1.00;;
11228;SDS011;5671;47.936;8.716;2022-10-22T09:44:26;1.60;;;1.37;;
11228;SDS011;5671;47.936;8.716;2022-10-22T09:46:53;1.80;;;1.00;;
11228;SDS011;5671;47.936;8.716;2022-10-22T09:52:28;1.90;;;1.20;;
11228;SDS011;5671;47.936;8.716;2022-10-22T09:55:01;3.37;;;1.23;;
11228;SDS011;5671;47.936;8.716;2022-10-22T09:57:38;2.63;;;1.00;;
11228;SDS011;5671;47.936;8.716;2022-10-22T10:00:07;4.53;;;1.10;;
11228;SDS011;5671;47.936;8.716;2022-10-22T10:02:38;1.93;;;1.13;;
11228;SDS011;5671;47.936;8.716;2022-10-22T10:05:07;1.40;;;1.00;;
11228;SDS011;5671;47.936;8.716;2022-10-22T10:07:42;5.80;;;1.50;;
11228;SDS011;5671;47.936;8.716;2022-10-22T10:10:15;3.53;;;1.60;;
11228;SDS011;5671;47.936;8.716;2022-10-22T10:12:45;3.10;;;1.63;;
11228;SDS011;5671;47.936;8.716;2022-10-22T10:15:22;2.27;;;1.40;;
11228;SDS011;5671;47.936;8.716;2022-10-22T10:17:56;2.30;;;1.60;;
11228;SDS011;5671;47.936;8.716;2022-10-22T10:20:37;2.67;;;1.37;;
11228;SDS011;5671;47.936;8.716;2022-10-22T10:26:50;6.13;;;1.90;;
11228;SDS011;5671;47.936;8.716;2022-10-22T10:29:53;4.30;;;1.57;;
11228;SDS011;5671;47.936;8.716;2022-10-22T10:32:48;2.43;;;1.10;;
11228;SDS011;5671;47.936;8.716;2022-10-22T10:35:27;1.93;;;1.37;;
11228;SDS011;5671;47.936;8.716;2022-10-22T10:38:05;2.70;;;1.17;;
11228;SDS011;5671;47.936;8.716;2022-10-22T10:42:19;6.13;;;1.20;;
11228;SDS011;5671;47.936;8.716;2022-10-22T10:47:13;3.03;;;1.10;;
11228;SDS011;5671;47.936;8.716;2022-10-22T10:49:53;4.57;;;1.30;;
11228;SDS011;5671;47.936;8.716;2022-10-22T10:52:27;4.83;;;1.43;;
11228;SDS011;5671;47.936;8.716;2022-10-22T10:55:21;2.33;;;1.10;;
11228;SDS011;5671;47.936;8.716;2022-10-22T11:01:26;5.90;;;1.20;;
11228;SDS011;5671;47.936;8.716;2022-10-22T11:04:07;4.87;;;1.10;;
11228;SDS011;5671;47.936;8.716;2022-10-22T11:07:04;4.23;;;1.00;;
11228;SDS011;5671;47.936;8.716;2022-10-22T11:09:40;2.30;;;1.33;;
11228;SDS011;5671;47.936;8.716;2022-10-22T11:12:12;2.20;;;1.37;;
11228;SDS011;5671;47.936;8.716;2022-10-22T11:14:48;2.70;;;1.00;;
11228;SDS011;5671;47.936;8.716;2022-10-22T11:17:22;2.63;;;1.10;;
11228;SDS011;5671;47.936;8.716;2022-10-22T11:19:55;2.27;;;0.90;;
11228;SDS011;5671;47.936;8.716;2022-10-22T11:22:28;2.77;;;1.23;;
11228;SDS011;5671;47.936;8.716;2022-10-22T11:25:11;2.17;;;1.13;;
11228;SDS011;5671;47.936;8.716;2022-10-22T11:27:48;3.70;;;1.00;;
11228;SDS011;5671;47.936;8.716;2022-10-22T11:30:32;2.67;;;1.17;;
11228;SDS011;5671;47.936;8.716;2022-10-22T11:33:01;2.63;;;1.30;;
11228;SDS011;5671;47.936;8.716;2022-10-22T11:35:36;5.57;;;1.20;;
11228;SDS011;5671;47.936;8.716;2022-10-22T11:38:06;3.47;;;1.30;;
11228;SDS011;5671;47.936;8.716;2022-10-22T11:43:52;2.00;;;1.37;;
11228;SDS011;5671;47.936;8.716;2022-10-22T11:46:53;3.17;;;1.20;;
11228;SDS011;5671;47.936;8.716;2022-10-22T11:49:41;3.70;;;1.13;;
11228;SDS011;5671;47.936;8.716;2022-10-22T11:52:24;5.57;;;1.83;;
11228;SDS011;5671;47.936;8.716;2022-10-22T11:55:26;2.57;;;1.07;;
11228;SDS011;5671;47.936;8.716;2022-10-22T11:57:59;2.77;;;1.20;;
11228;SDS011;5671;47.936;8.716;2022-10-22T12:00:47;3.77;;;1.33;;
11228;SDS011;5671;47.936;8.716;2022-10-22T12:03:15;3.87;;;1.13;;
11228;SDS011;5671;47.936;8.716;2022-10-22T12:06:01;1.73;;;1.10;;
11228;SDS011;5671;47.936;8.716;2022-10-22T12:08:33;4.30;;;1.53;;
11228;SDS011;5671;47.936;8.716;2022-10-22T12:11:13;3.00;;;1.30;;
11228;SDS011;5671;47.936;8.716;2022-10-22T12:13:56;2.97;;;1.40;;
11228;SDS011;5671;47.936;8.716;2022-10-22T12:20:13;3.37;;;1.37;;
11228;SDS011;5671;47.936;8.716;2022-10-22T12:22:41;2.97;;;1.60;;
11228;SDS011;5671;47.936;8.716;2022-10-22T12:44:54;2.70;;;1.30;;
11228;SDS011;5671;47.936;8.716;2022-10-22T12:47:45;5.83;;;1.43;;
11228;SDS011;5671;47.936;8.716;2022-10-22T12:54:23;2.43;;;1.20;;
11228;SDS011;5671;47.936;8.716;2022-10-22T13:00:40;3.20;;;1.20;;
11228;SDS011;5671;47.936;8.716;2022-10-22T13:30:37;1.13;;;1.03;;
11228;SDS011;5671;47.936;8.716;2022-10-22T13:33:05;2.50;;;1.37;;
11228;SDS011;5671;47.936;8.716;2022-10-22T13:45:43;2.13;;;1.10;;
11228;SDS011;5671;47.936;8.716;2022-10-22T13:55:30;6.43;;;1.40;;
11228;SDS011;5671;47.936;8.716;2022-10-22T13:58:17;3.17;;;1.30;;
11228;SDS011;5671;47.936;8.716;2022-10-22T14:01:19;3.07;;;1.20;;
11228;SDS011;5671;47.936;8.716;2022-10-22T14:06:40;5.53;;;1.30;;
11228;SDS011;5671;47.936;8.716;2022-10-22T14:11:31;5.23;;;1.80;;
11228;SDS011;5671;47.936;8.716;2022-10-22T14:12:53;4.57;;;1.30;;
11228;SDS011;5671;47.936;8.716;2022-10-22T14:16:32;2.03;;;1.27;;
11228;SDS011;5671;47.936;8.716;2022-10-22T14:25:03;5.37;;;1.20;;
11228;SDS011;5671;47.936;8.716;2022-10-22T14:27:36;1.57;;;1.10;;
11228;SDS011;5671;47.936;8.716;2022-10-22T14:32:57;3.07;;;1.23;;
11228;SDS011;5671;47.936;8.716;2022-10-22T14:35:30;2.70;;;1.27;;
11228;SDS011;5671;47.936;8.716;2022-10-22T14:48:20;0.90;;;0.90;;
11228;SDS011;5671;47.936;8.716;2022-10-22T14:50:50;3.33;;;1.07;;
11228;SDS011;5671;47.936;8.716;2022-10-22T14:53:17;2.23;;;1.00;;
11228;SDS011;5671;47.936;8.716;2022-10-22T14:55:46;1.83;;;1.03;;
11228;SDS011;5671;47.936;8.716;2022-10-22T15:22:52;3.27;;;1.23;;
11228;SDS011;5671;47.936;8.716;2022-10-22T15:25:19;4.87;;;1.43;;
11228;SDS011;5671;47.936;8.716;2022-10-22T15:28:03;3.67;;;1.03;;
11228;SDS011;5671;47.936;8.716;2022-10-22T15:30:32;1.43;;;0.80;;
11228;SDS011;5671;47.936;8.716;2022-10-22T15:33:00;3.50;;;1.00;;
11228;SDS011;5671;47.936;8.716;2022-10-22T15:35:27;1.97;;;0.93;;
11228;SDS011;5671;47.936;8.716;2022-10-22T15:37:55;2.30;;;1.37;;
11228;SDS011;5671;47.936;8.716;2022-10-22T15:40:22;0.80;;;0.80;;
11228;SDS011;5671;47.936;8.716;2022-10-22T15:42:49;2.57;;;1.20;;
11228;SDS011;5671;47.936;8.716;2022-10-22T15:45:16;8.60;;;1.43;;
11228;SDS011;5671;47.936;8.716;2022-10-22T15:47:45;1.90;;;0.97;;
11228;SDS011;5671;47.936;8.716;2022-10-22T15:50:13;3.13;;;1.93;;
11228;SDS011;5671;47.936;8.716;2022-10-22T15:52:41;4.43;;;1.40;;
11228;SDS011;5671;47.936;8.716;2022-10-22T15:55:10;5.53;;;1.83;;
11228;SDS011;5671;47.936;8.716;2022-10-22T15:57:37;3.20;;;1.13;;
11228;SDS011;5671;47.936;8.716;2022-10-22T16:00:04;2.20;;;1.10;;
11228;SDS011;5671;47.936;8.716;2022-10-22T16:02:32;4.63;;;0.93;;
11228;SDS011;5671;47.936;8.716;2022-10-22T16:04:59;6.03;;;1.30;;
11228;SDS011;5671;47.936;8.716;2022-10-22T16:07:26;2.37;;;1.20;;
11228;SDS011;5671;47.936;8.716;2022-10-22T16:09:54;3.17;;;1.40;;
11228;SDS011;5671;47.936;8.716;2022-10-22T16:12:29;3.20;;;1.33;;
11228;SDS011;5671;47.936;8.716;2022-10-22T16:14:56;7.57;;;1.60;;
11228;SDS011;5671;47.936;8.716;2022-10-22T16:20:44;4.50;;;1.50;;
11228;SDS011;5671;47.936;8.716;2022-10-22T16:23:11;8.77;;;1.63;;
11228;SDS011;5671;47.936;8.716;2022-10-22T16:25:42;4.87;;;1.73;;
11228;SDS011;5671;47.936;8.716;2022-10-22T16:28:12;7.87;;;1.40;;
11228;SDS011;5671;47.936;8.716;2022-10-22T16:30:39;3.20;;;1.33;;
11228;SDS011;5671;47.936;8.716;2022-10-22T16:33:07;3.00;;;1.50;;
11228;SDS011;5671;47.936;8.716;2022-10-22T16:35:38;3.37;;;1.77;;
11228;SDS011;5671;47.936;8.716;2022-10-22T16:38:06;4.90;;;2.50;;
11228;SDS011;5671;47.936;8.716;2022-10-22T16:40:34;5.73;;;2.47;;
11228;SDS011;5671;47.936;8.716;2022-10-22T16:43:01;8.93;;;2.03;;
11228;SDS011;5671;47.936;8.716;2022-10-22T16:45:29;3.33;;;1.50;;
11228;SDS011;5671;47.936;8.716;2022-10-22T16:47:56;5.50;;;1.47;;
11228;SDS011;5671;47.936;8.716;2022-10-22T16:50:28;7.17;;;1.80;;
11228;SDS011;5671;47.936;8.716;2022-10-22T16:52:58;5.90;;;1.60;;
11228;SDS011;5671;47.936;8.716;2022-10-22T16:55:25;4.20;;;1.70;;
11228;SDS011;5671;47.936;8.716;2022-10-22T16:57:52;3.67;;;1.60;;
11228;SDS011;5671;47.936;8.716;2022-10-22T17:00:19;8.13;;;1.33;;
11228;SDS011;5671;47.936;8.716;2022-10-22T17:02:52;2.93;;;1.20;;
11228;SDS011;5671;47.936;8.716;2022-10-22T17:05:21;4.00;;;0.87;;
11228;SDS011;5671;47.936;8.716;2022-10-22T17:07:49;7.73;;;1.20;;
11228;SDS011;5671;47.936;8.716;2022-10-22T17:10:17;5.60;;;1.17;;
11228;SDS011;5671;47.936;8.716;2022-10-22T17:12:45;5.93;;;1.27;;
11228;SDS011;5671;47.936;8.716;2022-10-22T17:15:15;3.40;;;1.17;;
11228;SDS011;5671;47.936;8.716;2022-10-22T17:17:43;5.23;;;1.20;;
11228;SDS011;5671;47.936;8.716;2022-10-22T17:20:18;2.27;;;1.10;;
11228;SDS011;5671;47.936;8.716;2022-10-22T17:22:45;6.00;;;1.77;;
11228;SDS011;5671;47.936;8.716;2022-10-22T17:25:14;2.97;;;1.90;;
11228;SDS011;5671;47.936;8.716;2022-10-22T17:27:44;3.67;;;2.20;;
11228;SDS011;5671;47.936;8.716;2022-10-22T17:30:11;3.83;;;2.27;;
11228;SDS011;5671;47.936;8.716;2022-10-22T17:32:42;8.37;;;1.90;;
11228;SDS011;5671;47.936;8.716;2022-10-22T17:35:09;4.30;;;1.20;;
11228;SDS011;5671;47.936;8.716;2022-10-22T17:37:40;8.73;;;1.93;;
11228;SDS011;5671;47.936;8.716;2022-10-22T17:40:08;2.37;;;1.93;;
11228;SDS011;5671;47.936;8.716;2022-10-22T17:42:35;4.03;;;2.07;;
11228;SDS011;5671;47.936;8.716;2022-10-22T17:45:02;8.83;;;1.87;;
11228;SDS011;5671;47.936;8.716;2022-10-22T17:47:30;8.93;;;2.67;;
11228;SDS011;5671;47.936;8.716;2022-10-22T17:49:56;10.50;;;5.03;;
11228;SDS011;5671;47.936;8.716;2022-10-22T17:52:23;8.30;;;4.27;;
11228;SDS011;5671;47.936;8.716;2022-10-22T17:54:52;6.60;;;3.40;;
11228;SDS011;5671;47.936;8.716;2022-10-22T17:57:22;7.20;;;3.07;;
11228;SDS011;5671;47.936;8.716;2022-10-22T17:59:49;3.73;;;2.10;;
11228;SDS011;5671;47.936;8.716;2022-10-22T18:02:16;7.87;;;1.40;;
11228;SDS011;5671;47.936;8.716;2022-10-22T18:04:43;9.60;;;1.40;;
11228;SDS011;5671;47.936;8.716;2022-10-22T18:07:10;3.33;;;1.20;;
11228;SDS011;5671;47.936;8.716;2022-10-22T18:09:38;7.27;;;1.80;;
11228;SDS011;5671;47.936;8.716;2022-10-22T18:12:08;5.43;;;1.70;;
11228;SDS011;5671;47.936;8.716;2022-10-22T18:14:38;6.07;;;1.67;;
11228;SDS011;5671;47.936;8.716;2022-10-22T18:17:05;2.77;;;1.30;;
11228;SDS011;5671;47.936;8.716;2022-10-22T18:19:32;5.47;;;1.30;;
11228;SDS011;5671;47.936;8.716;2022-10-22T18:21:59;9.07;;;1.23;;
11228;SDS011;5671;47.936;8.716;2022-10-22T18:24:26;4.03;;;1.73;;
11228;SDS011;5671;47.936;8.716;2022-10-22T18:26:53;6.37;;;1.53;;
11228;SDS011;5671;47.936;8.716;2022-10-22T18:29:21;9.30;;;2.00;;
11228;SDS011;5671;47.936;8.716;2022-10-22T18:31:48;5.67;;;1.87;;
11228;SDS011;5671;47.936;8.716;2022-10-22T18:34:16;4.80;;;2.23;;
11228;SDS011;5671;47.936;8.716;2022-10-22T18:36:43;4.97;;;2.03;;
11228;SDS011;5671;47.936;8.716;2022-10-22T18:39:11;4.57;;;2.20;;
11228;SDS011;5671;47.936;8.716;2022-10-22T18:41:40;7.33;;;2.77;;
11228;SDS011;5671;47.936;8.716;2022-10-22T18:44:07;5.87;;;2.20;;
11228;SDS011;5671;47.936;8.716;2022-10-22T18:46:38;7.07;;;3.13;;
11228;SDS011;5671;47.936;8.716;2022-10-22T18:49:05;3.20;;;2.30;;
11228;SDS011;5671;47.936;8.716;2022-10-22T18:51:33;8.33;;;2.93;;
11228;SDS011;5671;47.936;8.716;2022-10-22T18:54:01;12.37;;;6.57;;
11228;SDS011;5671;47.936;8.716;2022-10-22T18:56:29;12.00;;;8.50;;
11228;SDS011;5671;47.936;8.716;2022-10-22T18:58:58;22.27;;;9.00;;
11228;SDS011;5671;47.936;8.716;2022-10-22T19:01:40;13.57;;;3.50;;
11228;SDS011;5671;47.936;8.716;2022-10-22T19:04:07;6.83;;;2.30;;
11228;SDS011;5671;47.936;8.716;2022-10-22T19:06:34;4.17;;;2.63;;
11228;SDS011;5671;47.936;8.716;2022-10-22T19:09:01;10.30;;;4.20;;
11228;SDS011;5671;47.936;8.716;2022-10-22T19:11:28;10.93;;;4.47;;
11228;SDS011;5671;47.936;8.716;2022-10-22T19:13:55;10.73;;;7.57;;
11228;SDS011;5671;47.936;8.716;2022-10-22T19:16:23;37.37;;;33.27;;
11228;SDS011;5671;47.936;8.716;2022-10-22T19:18:52;30.43;;;26.47;;
11228;SDS011;5671;47.936;8.716;2022-10-22T19:21:25;21.23;;;14.77;;
11228;SDS011;5671;47.936;8.716;2022-10-22T19:23:53;11.70;;;8.67;;
11228;SDS011;5671;47.936;8.716;2022-10-22T19:26:21;7.23;;;4.03;;
11228;SDS011;5671;47.936;8.716;2022-10-22T19:28:50;8.30;;;3.80;;
11228;SDS011;5671;47.936;8.716;2022-10-22T19:31:19;7.07;;;3.20;;
11228;SDS011;5671;47.936;8.716;2022-10-22T19:33:47;11.40;;;3.33;;
11228;SDS011;5671;47.936;8.716;2022-10-22T19:36:16;7.17;;;2.93;;
11228;SDS011;5671;47.936;8.716;2022-10-22T19:38:44;9.30;;;2.33;;
11228;SDS011;5671;47.936;8.716;2022-10-22T19:41:14;8.40;;;2.80;;
11228;SDS011;5671;47.936;8.716;2022-10-22T19:43:43;11.13;;;3.83;;
11228;SDS011;5671;47.936;8.716;2022-10-22T19:46:10;7.17;;;2.93;;
11228;SDS011;5671;47.936;8.716;2022-10-22T19:48:38;6.30;;;3.20;;
11228;SDS011;5671;47.936;8.716;2022-10-22T19:51:06;9.57;;;3.10;;
11228;SDS011;5671;47.936;8.716;2022-10-22T19:53:36;4.43;;;3.00;;
11228;SDS011;5671;47.936;8.716;2022-10-22T19:56:05;6.50;;;3.37;;
11228;SDS011;5671;47.936;8.716;2022-10-22T19:58:34;7.00;;;3.13;;
11228;SDS011;5671;47.936;8.716;2022-10-22T20:01:02;8.57;;;2.80;;
11228;SDS011;5671;47.936;8.716;2022-10-22T20:03:30;9.10;;;3.20;;
11228;SDS011;5671;47.936;8.716;2022-10-22T20:05:57;8.90;;;3.37;;
11228;SDS011;5671;47.936;8.716;2022-10-22T20:08:24;6.53;;;2.23;;
11228;SDS011;5671;47.936;8.716;2022-10-22T20:10:52;6.00;;;1.70;;
11228;SDS011;5671;47.936;8.716;2022-10-22T20:13:19;5.47;;;1.80;;
11228;SDS011;5671;47.936;8.716;2022-10-22T20:15:46;2.33;;;1.70;;
11228;SDS011;5671;47.936;8.716;2022-10-22T20:18:14;6.00;;;1.60;;
11228;SDS011;5671;47.936;8.716;2022-10-22T20:20:41;1.80;;;1.47;;
11228;SDS011;5671;47.936;8.716;2022-10-22T20:23:08;7.27;;;1.87;;
11228;SDS011;5671;47.936;8.716;2022-10-22T20:25:38;5.33;;;1.63;;
11228;SDS011;5671;47.936;8.716;2022-10-22T20:28:08;5.33;;;2.23;;
11228;SDS011;5671;47.936;8.716;2022-10-22T20:30:39;3.70;;;1.70;;
11228;SDS011;5671;47.936;8.716;2022-10-22T20:33:08;4.60;;;1.80;;
11228;SDS011;5671;47.936;8.716;2022-10-22T20:35:35;6.20;;;1.80;;
11228;SDS011;5671;47.936;8.716;2022-10-22T20:38:03;5.67;;;1.67;;
11228;SDS011;5671;47.936;8.716;2022-10-22T20:40:31;4.80;;;2.03;;
11228;SDS011;5671;47.936;8.716;2022-10-22T20:42:58;3.13;;;1.53;;
11228;SDS011;5671;47.936;8.716;2022-10-22T20:45:27;7.97;;;1.83;;
11228;SDS011;5671;47.936;8.716;2022-10-22T20:47:54;3.67;;;1.80;;
11228;SDS011;5671;47.936;8.716;2022-10-22T20:50:23;11.53;;;2.00;;
11228;SDS011;5671;47.936;8.716;2022-10-22T20:52:53;6.77;;;1.83;;
11228;SDS011;5671;47.936;8.716;2022-10-22T20:55:20;4.80;;;1.77;;
11228;SDS011;5671;47.936;8.716;2022-10-22T20:57:47;7.53;;;1.70;;
11228;SDS011;5671;47.936;8.716;2022-10-22T21:00:15;2.70;;;1.50;;
11228;SDS011;5671;47.936;8.716;2022-10-22T21:02:43;3.63;;;1.53;;
11228;SDS011;5671;47.936;8.716;2022-10-22T21:05:10;7.57;;;1.90;;
11228;SDS011;5671;47.936;8.716;2022-10-22T21:07:37;1.10;;;1.00;;
11228;SDS011;5671;47.936;8.716;2022-10-22T21:10:04;4.70;;;1.73;;
11228;SDS011;5671;47.936;8.716;2022-10-22T21:12:32;17.50;;;2.00;;
11228;SDS011;5671;47.936;8.716;2022-10-22T21:14:59;9.67;;;2.10;;
11228;SDS011;5671;47.936;8.716;2022-10-22T21:17:26;4.33;;;1.73;;
11228;SDS011;5671;47.936;8.716;2022-10-22T21:19:54;6.57;;;2.20;;
11228;SDS011;5671;47.936;8.716;2022-10-22T21:22:21;6.47;;;1.80;;
11228;SDS011;5671;47.936;8.716;2022-10-22T21:24:48;25.50;;;2.53;;
11228;SDS011;5671;47.936;8.716;2022-10-22T21:27:15;10.97;;;2.43;;
11228;SDS011;5671;47.936;8.716;2022-10-22T21:29:42;21.03;;;2.33;;
11228;SDS011;5671;47.936;8.716;2022-10-22T21:32:09;2.77;;;2.30;;
11228;SDS011;5671;47.936;8.716;2022-10-22T21:34:36;7.27;;;2.10;;
11228;SDS011;5671;47.936;8.716;2022-10-22T21:37:05;8.00;;;2.20;;
11228;SDS011;5671;47.936;8.716;2022-10-22T21:39:32;4.90;;;2.20;;
11228;SDS011;5671;47.936;8.716;2022-10-22T21:41:59;2.60;;;1.87;;
11228;SDS011;5671;47.936;8.716;2022-10-22T21:44:26;4.60;;;1.73;;
11228;SDS011;5671;47.936;8.716;2022-10-22T21:46:56;1.83;;;1.73;;
11228;SDS011;5671;47.936;8.716;2022-10-22T21:49:23;8.17;;;2.10;;
11228;SDS011;5671;47.936;8.716;2022-10-22T21:51:50;7.47;;;2.03;;
11228;SDS011;5671;47.936;8.716;2022-10-22T21:54:18;5.17;;;2.00;;
11228;SDS011;5671;47.936;8.716;2022-10-22T21:56:45;8.93;;;2.03;;
11228;SDS011;5671;47.936;8.716;2022-10-22T21:59:13;15.47;;;2.30;;
11228;SDS011;5671;47.936;8.716;2022-10-22T22:01:40;11.57;;;2.30;;
11228;SDS011;5671;47.936;8.716;2022-10-22T22:04:06;20.27;;;2.57;;
11228;SDS011;5671;47.936;8.716;2022-10-22T22:06:33;37.93;;;2.80;;
11228;SDS011;5671;47.936;8.716;2022-10-22T22:09:01;5.00;;;1.87;;
11228;SDS011;5671;47.936;8.716;2022-10-22T22:11:30;3.27;;;2.20;;
11228;SDS011;5671;47.936;8.716;2022-10-22T22:13:58;6.73;;;2.20;;
11228;SDS011;5671;47.936;8.716;2022-10-22T22:16:26;4.80;;;3.03;;
11228;SDS011;5671;47.936;8.716;2022-10-22T22:18:54;4.30;;;2.40;;
11228;SDS011;5671;47.936;8.716;2022-10-22T22:21:21;10.03;;;2.37;;
11228;SDS011;5671;47.936;8.716;2022-10-22T22:23:49;9.90;;;2.63;;
11228;SDS011;5671;47.936;8.716;2022-10-22T22:26:18;4.87;;;2.80;;
11228;SDS011;5671;47.936;8.716;2022-10-22T22:28:47;6.37;;;2.80;;
11228;SDS011;5671;47.936;8.716;2022-10-22T22:31:16;6.90;;;2.77;;
11228;SDS011;5671;47.936;8.716;2022-10-22T22:33:44;8.73;;;3.37;;
11228;SDS011;5671;47.936;8.716;2022-10-22T22:36:11;5.23;;;2.90;;
11228;SDS011;5671;47.936;8.716;2022-10-22T22:38:38;7.63;;;3.43;;
11228;SDS011;5671;47.936;8.716;2022-10-22T22:41:05;3.00;;;2.60;;
11228;SDS011;5671;47.936;8.716;2022-10-22T22:43:33;7.47;;;3.23;;
11228;SDS011;5671;47.936;8.716;2022-10-22T22:46:04;5.47;;;2.67;;
11228;SDS011;5671;47.936;8.716;2022-10-22T22:48:32;3.87;;;2.87;;
11228;SDS011;5671;47.936;8.716;2022-10-22T22:51:00;15.67;;;3.60;;
11228;SDS011;5671;47.936;8.716;2022-10-22T22:53:27;26.57;;;3.37;;
11228;SDS011;5671;47.936;8.716;2022-10-22T22:56:04;16.67;;;3.37;;
11228;SDS011;5671;47.936;8.716;2022-10-22T22:58:32;22.60;;;3.43;;
11228;SDS011;5671;47.936;8.716;2022-10-22T23:01:14;25.77;;;3.70;;
11228;SDS011;5671;47.936;8.716;2022-10-22T23:03:43;7.90;;;3.43;;
11228;SDS011;5671;47.936;8.716;2022-10-22T23:06:10;36.50;;;3.70;;
11228;SDS011;5671;47.936;8.716;2022-10-22T23:08:38;98.73;;;5.37;;
11228;SDS011;5671;47.936;8.716;2022-10-22T23:11:06;77.23;;;5.33;;
11228;SDS011;5671;47.936;8.716;2022-10-22T23:13:35;57.17;;;5.13;;
11228;SDS011;5671;47.936;8.716;2022-10-22T23:16:06;60.20;;;5.20;;
11228;SDS011;5671;47.936;8.716;2022-10-22T23:18:35;73.93;;;5.37;;
11228;SDS011;5671;47.936;8.716;2022-10-22T23:21:03;16.33;;;3.30;;
11228;SDS011;5671;47.936;8.716;2022-10-22T23:23:31;52.27;;;4.83;;
11228;SDS011;5671;47.936;8.716;2022-10-22T23:25:58;84.40;;;4.90;;
11228;SDS011;5671;47.936;8.716;2022-10-22T23:28:25;22.97;;;3.53;;
11228;SDS011;5671;47.936;8.716;2022-10-22T23:30:52;34.60;;;3.77;;
11228;SDS011;5671;47.936;8.716;2022-10-22T23:33:19;40.93;;;3.83;;
11228;SDS011;5671;47.936;8.716;2022-10-22T23:35:47;67.30;;;4.00;;
11228;SDS011;5671;47.936;8.716;2022-10-22T23:38:14;39.73;;;3.47;;
11228;SDS011;5671;47.936;8.716;2022-10-22T23:40:41;70.03;;;4.20;;
11228;SDS011;5671;47.936;8.716;2022-10-22T23:43:10;89.07;;;4.97;;
11228;SDS011;5671;47.936;8.716;2022-10-22T23:45:37;97.37;;;4.73;;
11228;SDS011;5671;47.936;8.716;2022-10-22T23:48:04;16.47;;;2.70;;
11228;SDS011;5671;47.936;8.716;2022-10-22T23:50:31;41.50;;;3.57;;
11228;SDS011;5671;47.936;8.716;2022-10-22T23:53:03;60.10;;;3.90;;
11228;SDS011;5671;47.936;8.716;2022-10-22T23:55:30;43.53;;;3.63;;
11228;SDS011;5671;47.936;8.716;2022-10-22T23:57:56;17.13;;;3.30;;
